createdAt,value
2022-08-07T00:04:31.807Z,98227.78
2022-08-07T00:14:34.621Z,98222.00
2022-08-07T00:24:38.482Z,98222.47
2022-08-07T00:34:43.094Z,98227.06
2022-08-07T00:44:45.791Z,98222.66
2022-08-07T00:54:53.339Z,98223.66
2022-08-07T01:04:59.077Z,98224.06
2022-08-07T01:15:03.845Z,98227.72
2022-08-07T01:25:39.815Z,98226.78
2022-08-07T01:35:52.934Z,98222.91
2022-08-07T01:45:55.495Z,98221.16
2022-08-07T01:56:11.298Z,98225.66
2022-08-07T02:06:31.423Z,98230.13
2022-08-07T02:16:37.801Z,98226.72
2022-08-07T02:26:41.211Z,98228.25
2022-08-07T02:36:46.386Z,98229.75
2022-08-07T02:46:52.569Z,98231.25
2022-08-07T02:56:59.670Z,98235.81
2022-08-07T03:07:03.398Z,98232.69
2022-08-07T03:17:13.702Z,98225.81
2022-08-07T03:27:30.836Z,98233.03
2022-08-07T03:37:46.114Z,98229.44
2022-08-07T03:47:58.152Z,98229.94
2022-08-07T03:58:32.543Z,98228.22
2022-08-07T04:08:24.581Z,98213.25
2022-08-07T04:18:57.549Z,98230.41
2022-08-07T04:28:50.838Z,98229.00
2022-08-07T04:38:54.091Z,98235.00
2022-08-07T04:48:59.811Z,98235.78
2022-08-07T05:00:10.946Z,98228.81
2022-08-07T05:09:59.820Z,98234.59
2022-08-07T05:20:09.467Z,98235.63
2022-08-07T05:30:12.661Z,98240.25
2022-08-07T05:40:19.291Z,98242.28
2022-08-07T05:50:24.459Z,98238.06
2022-08-07T06:00:27.633Z,98240.72
2022-08-07T06:10:31.210Z,98246.25
2022-08-07T06:20:50.339Z,98239.47
2022-08-07T06:31:03.824Z,98236.88
2022-08-07T06:42:00.487Z,98230.38
2022-08-07T06:51:49.697Z,98234.94
2022-08-07T07:01:54.729Z,98222.97
2022-08-07T07:12:09.881Z,98239.34
2022-08-07T07:22:36.073Z,98223.19
2022-08-07T07:32:45.889Z,98215.16
2022-08-07T07:42:55.471Z,98214.75
2022-08-07T07:52:59.488Z,98204.59
2022-08-07T08:03:16.375Z,98202.00
2022-08-07T08:13:23.838Z,98197.72
2022-08-07T08:23:55.281Z,98187.25
2022-08-07T08:34:00.818Z,98183.84
2022-08-07T08:44:09.908Z,98188.25
2022-08-07T08:55:07.870Z,98202.28
2022-08-07T09:05:16.811Z,98200.88
2022-08-07T09:16:24.533Z,98192.09
2022-08-07T09:26:39.872Z,98195.03
2022-08-07T09:37:05.275Z,98177.44
2022-08-07T09:47:50.582Z,98173.97
2022-08-07T09:58:32.467Z,98163.09
2022-08-07T10:08:38.327Z,98150.38
2022-08-07T10:18:58.117Z,98145.72
2022-08-07T10:29:51.724Z,98130.25
2022-08-07T10:40:08.842Z,98123.63
2022-08-07T10:50:20.121Z,98106.81
2022-08-07T11:00:39.372Z,98108.84
2022-08-07T11:11:00.223Z,98112.25
2022-08-07T11:21:32.276Z,98102.28
2022-08-07T11:31:47.537Z,98096.53
2022-08-07T11:42:32.023Z,98092.59
2022-08-07T11:53:02.291Z,98081.97
2022-08-07T12:03:46.538Z,98065.84
2022-08-07T12:13:52.012Z,98058.13
2022-08-07T12:24:37.093Z,98065.34
2022-08-07T12:34:42.260Z,98058.06
2022-08-07T12:44:55.359Z,98037.00
2022-08-07T12:55:17.452Z,98028.09
2022-08-07T13:06:03.940Z,98014.72
2022-08-07T13:16:46.893Z,98006.13
2022-08-07T13:28:05.662Z,98006.00
2022-08-07T13:38:03.901Z,97989.50
2022-08-07T13:48:10.544Z,97975.16
2022-08-07T13:58:56.867Z,97967.84
2022-08-07T14:09:01.424Z,97965.31
2022-08-07T14:20:41.190Z,97949.09
2022-08-07T14:30:08.159Z,97947.03
2022-08-07T14:40:26.593Z,97953.03
2022-08-07T14:50:37.574Z,97941.59
2022-08-07T15:00:44.100Z,97935.94
2022-08-07T15:10:58.675Z,97937.66
2022-08-07T15:21:08.297Z,97929.47
2022-08-07T15:32:01.216Z,97918.91
2022-08-07T15:42:43.441Z,97911.38
2022-08-07T15:52:30.006Z,97912.78
2022-08-07T16:02:46.717Z,97906.06
2022-08-07T16:13:59.184Z,97912.75
2022-08-07T16:24:03.336Z,97906.28
2022-08-07T16:34:45.508Z,97897.47
2022-08-07T16:46:41.047Z,97905.09
2022-08-07T16:56:18.688Z,97909.00
2022-08-07T17:06:58.015Z,97909.88
2022-08-07T17:17:14.594Z,97907.63
2022-08-07T17:27:52.147Z,97909.28
2022-08-07T17:38:21.096Z,97911.88
2022-08-07T17:48:40.925Z,97911.19
2022-08-07T17:59:07.072Z,97916.69
2022-08-07T18:10:04.298Z,97927.69
2022-08-07T18:21:10.091Z,97933.00
2022-08-07T18:30:32.584Z,97952.28
2022-08-07T18:40:53.805Z,97953.31
2022-08-07T18:52:37.581Z,97961.63
2022-08-07T19:02:32.231Z,97970.34
2022-08-07T19:12:36.924Z,97984.91
2022-08-07T19:23:18.246Z,97999.31
2022-08-07T19:33:34.568Z,97997.06
2022-08-07T19:43:51.937Z,98006.28
2022-08-07T19:54:31.667Z,98011.56
2022-08-07T20:10:38.202Z,98015.19
2022-08-07T20:20:38.898Z,98023.50
2022-08-07T20:30:46.701Z,98019.28
2022-08-07T20:40:53.857Z,98020.19
2022-08-07T20:51:01.290Z,98016.97
2022-08-07T21:01:19.727Z,98014.56
2022-08-07T21:11:28.976Z,98016.53
2022-08-07T21:21:57.209Z,98016.81
2022-08-07T21:32:48.006Z,98020.41
2022-08-07T21:43:03.888Z,98020.16
2022-08-07T21:53:13.777Z,98027.03
2022-08-07T22:10:18.509Z,98030.56
2022-08-07T22:20:28.856Z,98035.19
2022-08-07T22:30:55.604Z,98029.16
2022-08-07T22:41:14.653Z,98020.69
2022-08-07T22:52:12.788Z,98019.56
2022-08-07T23:02:30.955Z,98015.22
2022-08-07T23:13:48.769Z,98026.38
2022-08-07T23:24:30.565Z,98013.56
2022-08-07T23:34:40.898Z,98011.84
2022-08-07T23:44:58.446Z,98012.13
2022-08-07T23:55:51.846Z,98019.16
